createdAt,value
2019-03-04T00:01:23.214Z,3.33
2019-03-04T00:03:52.541Z,2.80
2019-03-04T00:06:21.062Z,2.60
2019-03-04T00:08:51.473Z,3.13
2019-03-04T00:11:21.426Z,2.80
2019-03-04T00:13:50.678Z,2.30
2019-03-04T00:16:21.786Z,2.80
2019-03-04T00:18:51.583Z,2.70
2019-03-04T00:21:21.698Z,2.30
2019-03-04T00:23:50.263Z,2.13
2019-03-04T00:26:20.336Z,2.70
2019-03-04T00:28:51.537Z,2.00
2019-03-04T00:31:21.070Z,2.50
2019-03-04T00:33:50.512Z,2.30
2019-03-04T00:36:18.714Z,2.30
2019-03-04T00:38:47.551Z,2.20
2019-03-04T00:41:15.990Z,2.50
2019-03-04T00:43:45.256Z,2.90
2019-03-04T00:46:13.721Z,2.57
2019-03-04T00:48:43.901Z,2.80
2019-03-04T00:51:13.978Z,2.23
2019-03-04T00:53:44.750Z,2.17
2019-03-04T00:56:14.801Z,3.13
2019-03-04T00:58:43.215Z,2.20
2019-03-04T01:01:11.421Z,3.00
2019-03-04T01:03:39.609Z,2.20
2019-03-04T01:06:10.310Z,2.40
2019-03-04T01:08:39.941Z,2.07
2019-03-04T01:11:09.027Z,2.23
2019-03-04T01:13:39.905Z,2.30
2019-03-04T01:16:08.482Z,2.63
2019-03-04T01:18:40.071Z,2.67
2019-03-04T01:21:11.224Z,2.90
2019-03-04T01:23:41.113Z,2.73
2019-03-04T01:26:10.358Z,2.57
2019-03-04T01:28:38.718Z,3.00
2019-03-04T01:31:08.687Z,3.60
2019-03-04T01:33:38.722Z,3.00
2019-03-04T01:36:07.191Z,2.90
2019-03-04T01:38:38.311Z,2.80
2019-03-04T01:41:07.858Z,3.03
2019-03-04T01:43:38.935Z,3.57
2019-03-04T01:46:08.881Z,3.70
2019-03-04T01:48:38.166Z,3.40
2019-03-04T01:51:07.230Z,3.50
2019-03-04T01:53:36.878Z,3.13
2019-03-04T01:56:07.974Z,3.07
2019-03-04T01:58:37.238Z,3.00
2019-03-04T02:01:06.579Z,2.90
2019-03-04T02:03:35.042Z,3.80
2019-03-04T02:06:04.655Z,3.70
2019-03-04T02:08:33.909Z,3.80
2019-03-04T02:11:02.438Z,4.20
2019-03-04T02:13:30.797Z,3.50
2019-03-04T02:16:00.029Z,2.93
2019-03-04T02:18:29.529Z,3.47
2019-03-04T02:20:58.005Z,4.40
2019-03-04T02:23:26.498Z,3.83
2019-03-04T02:26:05.314Z,3.90
2019-03-04T02:28:34.859Z,3.63
2019-03-04T02:31:05.884Z,4.70
2019-03-04T02:33:34.954Z,3.60
2019-03-04T02:36:04.981Z,4.07
2019-03-04T02:38:33.508Z,3.93
2019-03-04T02:41:03.309Z,4.73
2019-03-04T02:43:34.850Z,4.23
2019-03-04T02:46:04.061Z,4.00
2019-03-04T02:48:33.376Z,4.10
2019-03-04T02:51:03.573Z,4.33
2019-03-04T02:53:32.424Z,4.03
2019-03-04T02:56:02.290Z,3.90
2019-03-04T02:58:33.518Z,4.60
2019-03-04T03:01:05.899Z,3.70
2019-03-04T03:03:36.239Z,3.57
2019-03-04T03:06:04.515Z,4.00
2019-03-04T03:08:34.307Z,3.90
2019-03-04T03:11:04.182Z,3.63
2019-03-04T03:13:33.778Z,3.63
2019-03-04T03:16:03.675Z,3.77
2019-03-04T03:18:32.530Z,3.20
2019-03-04T03:21:02.506Z,3.67
2019-03-04T03:23:31.074Z,4.70
2019-03-04T03:25:59.333Z,4.03
2019-03-04T03:28:27.616Z,4.73
2019-03-04T03:30:55.873Z,2.80
2019-03-04T03:33:24.168Z,3.43
2019-03-04T03:35:52.411Z,3.40
2019-03-04T03:38:20.694Z,3.97
2019-03-04T03:40:48.960Z,3.73
2019-03-04T03:43:17.243Z,3.83
2019-03-04T03:45:45.829Z,3.40
2019-03-04T03:48:15.771Z,3.97
2019-03-04T03:50:45.043Z,2.80
2019-03-04T03:53:13.586Z,3.43
2019-03-04T03:55:42.143Z,3.40
2019-03-04T03:58:10.502Z,2.93
2019-03-04T04:00:38.758Z,3.63
2019-03-04T04:03:07.044Z,5.00
2019-03-04T04:05:36.771Z,3.17
2019-03-04T04:08:05.392Z,3.03
2019-03-04T04:10:33.647Z,3.67
2019-03-04T04:13:06.147Z,3.00
2019-03-04T04:15:35.798Z,3.63
2019-03-04T04:18:04.404Z,2.70
2019-03-04T04:20:34.532Z,3.03
2019-03-04T04:23:04.819Z,4.20
2019-03-04T04:25:35.546Z,3.20
2019-03-04T04:28:05.848Z,3.10
2019-03-04T04:30:37.497Z,3.73
2019-03-04T04:33:07.138Z,3.17
2019-03-04T04:35:35.406Z,3.33
2019-03-04T04:38:03.618Z,3.93
2019-03-04T04:40:31.881Z,4.53
2019-03-04T04:43:00.166Z,4.30
2019-03-04T04:45:30.201Z,3.30
2019-03-04T04:47:59.206Z,3.70
2019-03-04T04:50:28.733Z,3.50
2019-03-04T04:52:56.943Z,3.73
2019-03-04T04:55:29.990Z,3.37
2019-03-04T04:57:59.531Z,3.47
2019-03-04T05:00:31.098Z,3.70
2019-03-04T05:03:00.722Z,2.90
2019-03-04T05:05:30.034Z,3.53
2019-03-04T05:08:00.978Z,3.53
2019-03-04T05:10:29.737Z,2.93
2019-03-04T05:12:59.457Z,3.30
2019-03-04T05:15:27.740Z,3.47
2019-03-04T05:17:57.841Z,4.03
2019-03-04T05:20:27.854Z,3.90
2019-03-04T05:22:57.143Z,3.50
2019-03-04T05:25:28.699Z,4.10
2019-03-04T05:27:56.965Z,3.67
2019-03-04T05:30:26.433Z,3.67
2019-03-04T05:32:56.229Z,4.10
2019-03-04T05:35:24.702Z,3.67
2019-03-04T05:37:54.906Z,3.97
2019-03-04T05:40:23.553Z,3.80
2019-03-04T05:42:51.994Z,3.80
2019-03-04T05:45:21.871Z,4.50
2019-03-04T05:47:50.255Z,4.10
2019-03-04T05:50:23.230Z,4.63
2019-03-04T05:52:53.265Z,4.43
2019-03-04T05:55:22.485Z,3.67
2019-03-04T05:57:52.136Z,4.20
2019-03-04T06:00:22.542Z,4.20
2019-03-04T06:02:53.686Z,4.97
2019-03-04T06:05:22.999Z,3.70
2019-03-04T06:07:55.938Z,3.60
2019-03-04T06:10:26.550Z,4.10
2019-03-04T06:12:55.058Z,3.57
2019-03-04T06:15:23.446Z,3.50
2019-03-04T06:17:51.814Z,3.87
2019-03-04T06:20:21.817Z,3.50
2019-03-04T06:22:50.879Z,3.43
2019-03-04T06:25:22.371Z,3.37
2019-03-04T06:27:51.648Z,4.10
2019-03-04T06:30:22.018Z,3.80
2019-03-04T06:32:53.126Z,3.00
2019-03-04T06:35:22.038Z,3.07
2019-03-04T06:37:50.640Z,3.10
2019-03-04T06:40:21.501Z,3.30
2019-03-04T06:42:51.370Z,4.50
2019-03-04T06:45:21.141Z,3.47
2019-03-04T06:47:49.508Z,2.83
2019-03-04T06:50:38.313Z,2.57
2019-03-04T06:53:06.909Z,5.27
2019-03-04T06:55:47.846Z,4.10
2019-03-04T06:58:17.118Z,5.10
2019-03-04T07:00:48.834Z,5.20
2019-03-04T07:03:18.931Z,4.87
2019-03-04T07:05:47.970Z,4.37
2019-03-04T07:08:35.714Z,4.70
2019-03-04T07:11:04.163Z,4.40
2019-03-04T07:13:32.347Z,4.20
2019-03-04T07:16:00.630Z,4.10
2019-03-04T07:18:28.817Z,4.50
2019-03-04T07:20:57.106Z,5.00
2019-03-04T07:23:25.369Z,7.80
2019-03-04T07:25:53.582Z,5.70
2019-03-04T07:28:21.855Z,7.10
2019-03-04T07:30:50.141Z,7.07
2019-03-04T07:33:18.330Z,5.20
2019-03-04T07:35:46.624Z,7.87
2019-03-04T07:38:16.418Z,6.00
2019-03-04T07:40:44.710Z,4.90
2019-03-04T07:43:12.893Z,6.10
2019-03-04T07:45:41.177Z,5.37
2019-03-04T07:48:09.449Z,4.53
2019-03-04T07:50:37.638Z,4.90
2019-03-04T07:53:05.925Z,4.10
2019-03-04T07:55:34.188Z,4.60
2019-03-04T07:58:02.465Z,4.03
2019-03-04T08:00:30.832Z,3.17
2019-03-04T08:02:59.117Z,3.87
2019-03-04T08:05:27.301Z,4.80
2019-03-04T08:08:00.054Z,4.47
2019-03-04T08:10:32.529Z,2.57
2019-03-04T08:13:05.585Z,2.60
2019-03-04T08:15:35.042Z,2.40
2019-03-04T08:18:03.329Z,2.20
2019-03-04T08:20:31.589Z,2.83
2019-03-04T08:22:59.800Z,2.40
2019-03-04T08:25:28.060Z,2.67
2019-03-04T08:27:56.342Z,2.23
2019-03-04T08:30:24.525Z,2.30
2019-03-04T08:32:52.811Z,2.23
2019-03-04T08:35:21.061Z,2.30
2019-03-04T08:37:49.739Z,1.53
2019-03-04T08:40:18.078Z,1.47
2019-03-04T08:42:46.577Z,1.50
2019-03-04T08:45:16.550Z,0.93
2019-03-04T08:47:44.757Z,1.10
2019-03-04T08:50:13.910Z,1.00
2019-03-04T08:52:42.199Z,1.10
2019-03-04T08:55:11.534Z,1.30
2019-03-04T08:57:40.091Z,0.80
2019-03-04T09:00:09.881Z,0.90
2019-03-04T09:02:38.172Z,0.83
2019-03-04T09:05:07.997Z,0.70
2019-03-04T09:07:36.290Z,1.00
2019-03-04T09:10:06.069Z,1.43
2019-03-04T09:12:35.895Z,0.97
2019-03-04T09:15:05.790Z,0.90
2019-03-04T09:17:34.001Z,1.33
2019-03-04T09:20:02.261Z,0.80
2019-03-04T09:22:30.545Z,0.93
2019-03-04T09:24:58.729Z,1.20
2019-03-04T09:27:26.950Z,0.93
2019-03-04T09:29:55.212Z,0.90
2019-03-04T09:32:23.506Z,1.10
2019-03-04T09:34:51.762Z,1.00
2019-03-04T09:37:20.050Z,1.03
2019-03-04T09:39:48.314Z,0.80
2019-03-04T09:42:17.165Z,0.87
2019-03-04T09:44:45.430Z,0.80
2019-03-04T09:47:13.690Z,0.77
2019-03-04T09:49:42.046Z,1.17
2019-03-04T09:52:10.310Z,4.60
2019-03-04T09:54:38.601Z,0.83
2019-03-04T09:57:06.867Z,0.80
2019-03-04T09:59:35.145Z,0.90
2019-03-04T10:02:03.403Z,0.80
2019-03-04T10:04:35.954Z,0.90
2019-03-04T10:07:05.694Z,1.10
2019-03-04T10:09:41.378Z,1.23
2019-03-04T10:12:14.056Z,0.80
2019-03-04T10:14:49.556Z,1.10
2019-03-04T10:17:19.283Z,0.90
2019-03-04T10:19:49.106Z,0.77
2019-03-04T10:22:21.930Z,1.30
2019-03-04T10:24:51.757Z,1.00
2019-03-04T10:27:30.496Z,1.00
2019-03-04T10:30:00.349Z,1.20
2019-03-04T10:32:30.114Z,1.13
2019-03-04T10:35:02.625Z,0.90
2019-03-04T10:37:35.133Z,1.00
2019-03-04T10:40:07.806Z,0.80
2019-03-04T10:42:40.550Z,1.07
2019-03-04T10:45:26.874Z,1.13
2019-03-04T10:47:55.134Z,1.30
2019-03-04T10:50:23.341Z,1.23
2019-03-04T10:52:51.526Z,1.50
2019-03-04T10:55:19.815Z,1.20
2019-03-04T10:57:48.084Z,1.30
2019-03-04T11:00:17.529Z,0.97
2019-03-04T11:02:45.798Z,1.20
2019-03-04T11:05:14.090Z,1.33
2019-03-04T11:07:42.427Z,1.20
2019-03-04T11:10:11.586Z,1.90
2019-03-04T11:12:39.953Z,1.83
2019-03-04T11:15:18.365Z,1.90
2019-03-04T11:17:46.634Z,1.73
2019-03-04T11:20:14.930Z,1.50
2019-03-04T11:22:43.189Z,1.30
2019-03-04T11:25:11.445Z,1.70
2019-03-04T11:27:39.734Z,1.50
2019-03-04T11:30:09.530Z,1.43
2019-03-04T11:35:12.036Z,1.03
2019-03-04T11:37:40.603Z,1.40
2019-03-04T11:40:17.480Z,1.40
2019-03-04T11:42:45.698Z,1.07
2019-03-04T11:45:16.267Z,1.67
2019-03-04T11:47:44.553Z,1.60
2019-03-04T11:50:13.990Z,1.73
2019-03-04T11:52:42.341Z,1.63
2019-03-04T11:55:12.073Z,1.40
2019-03-04T11:57:40.521Z,1.10
2019-03-04T12:00:10.314Z,1.00
2019-03-04T12:02:39.334Z,1.30
2019-03-04T12:05:09.297Z,1.20
2019-03-04T12:07:37.509Z,1.57
2019-03-04T12:10:10.409Z,1.50
2019-03-04T12:12:38.766Z,1.63
2019-03-04T12:15:08.502Z,1.27
2019-03-04T12:17:36.790Z,1.30
2019-03-04T12:20:06.745Z,1.57
2019-03-04T12:22:35.029Z,1.40
2019-03-04T12:25:05.094Z,1.90
2019-03-04T12:27:33.381Z,1.73
2019-03-04T12:30:01.569Z,1.70
2019-03-04T12:32:31.337Z,1.40
2019-03-04T12:34:59.658Z,1.60
2019-03-04T12:37:27.941Z,1.70
2019-03-04T12:39:56.310Z,1.30
2019-03-04T12:42:24.898Z,1.43
2019-03-04T12:44:53.342Z,1.33
2019-03-04T12:47:21.628Z,1.50
2019-03-04T12:49:49.949Z,1.67
2019-03-04T12:52:18.720Z,1.67
2019-03-04T12:54:48.121Z,2.20
2019-03-04T12:57:16.389Z,1.50
2019-03-04T12:59:44.680Z,1.50
2019-03-04T13:02:13.201Z,1.60
2019-03-04T13:04:41.417Z,1.97
2019-03-04T13:07:09.673Z,2.30
2019-03-04T13:09:37.958Z,1.53
2019-03-04T13:12:07.605Z,1.90
2019-03-04T13:14:35.905Z,2.00
2019-03-04T13:17:04.571Z,1.80
2019-03-04T13:19:32.859Z,1.60
2019-03-04T13:22:08.566Z,1.60
2019-03-04T13:24:32.057Z,1.30
2019-03-04T13:27:00.242Z,1.30
2019-03-04T13:29:28.526Z,1.80
2019-03-04T13:31:56.777Z,1.70
2019-03-04T13:34:24.995Z,1.87
2019-03-04T13:36:55.299Z,1.83
2019-03-04T13:39:23.694Z,1.40
2019-03-04T13:41:53.201Z,1.60
2019-03-04T13:44:24.525Z,1.87
2019-03-04T13:46:54.073Z,1.77
2019-03-04T13:49:24.186Z,2.40
2019-03-04T13:51:54.138Z,1.67
2019-03-04T13:54:23.118Z,1.63
2019-03-04T13:56:51.305Z,2.10
2019-03-04T13:59:20.548Z,1.93
2019-03-04T14:01:48.805Z,1.60
2019-03-04T14:04:17.019Z,2.07
2019-03-04T14:06:45.278Z,1.50
2019-03-04T14:09:15.277Z,1.90
2019-03-04T14:11:43.534Z,2.07
2019-03-04T14:14:11.890Z,1.90
2019-03-04T14:16:40.069Z,2.17
2019-03-04T14:19:08.353Z,1.97
2019-03-04T14:21:38.270Z,1.90
2019-03-04T14:24:06.546Z,2.20
2019-03-04T14:26:34.729Z,1.87
2019-03-04T14:29:02.943Z,1.50
2019-03-04T14:31:31.207Z,1.90
2019-03-04T14:33:59.497Z,1.70
2019-03-04T14:36:27.757Z,2.00
2019-03-04T14:38:55.974Z,1.57
2019-03-04T14:41:24.158Z,1.70
2019-03-04T14:43:52.368Z,1.60
2019-03-04T14:46:21.722Z,1.70
2019-03-04T14:48:50.181Z,1.60
2019-03-04T14:51:19.112Z,2.53
2019-03-04T14:53:47.913Z,1.33
2019-03-04T14:56:22.376Z,2.00
2019-03-04T14:58:46.602Z,1.33
2019-03-04T15:01:16.726Z,3.13
2019-03-04T15:03:45.247Z,2.37
2019-03-04T15:06:15.185Z,2.30
2019-03-04T15:08:43.371Z,6.07
2019-03-04T15:11:11.869Z,1.53
2019-03-04T15:13:41.093Z,1.70
2019-03-04T15:16:09.310Z,1.40
2019-03-04T15:18:37.569Z,1.90
2019-03-04T15:21:07.556Z,1.53
2019-03-04T15:23:37.711Z,1.53
2019-03-04T15:26:07.929Z,1.20
2019-03-04T15:28:37.919Z,1.87
2019-03-04T15:31:06.212Z,1.70
2019-03-04T15:33:35.802Z,1.70
2019-03-04T15:36:04.018Z,1.50
2019-03-04T15:38:32.552Z,2.17
2019-03-04T15:41:09.426Z,1.60
2019-03-04T15:43:38.523Z,1.53
2019-03-04T15:46:06.949Z,2.03
2019-03-04T15:48:35.291Z,1.90
2019-03-04T15:51:04.378Z,2.00
2019-03-04T15:53:32.557Z,1.67
2019-03-04T15:56:00.786Z,1.83
2019-03-04T15:58:29.813Z,1.63
2019-03-04T16:01:00.078Z,2.00
2019-03-04T16:03:28.287Z,2.03
2019-03-04T16:05:58.442Z,1.60
2019-03-04T16:08:26.701Z,3.03
2019-03-04T16:10:54.978Z,1.50
2019-03-04T16:13:27.581Z,1.30
2019-03-04T16:15:57.686Z,2.47
2019-03-04T16:18:27.627Z,1.40
2019-03-04T16:20:57.517Z,1.50
2019-03-04T16:23:26.172Z,1.80
2019-03-04T16:25:55.262Z,1.10
2019-03-04T16:28:28.490Z,1.10
2019-03-04T16:30:58.711Z,1.30
2019-03-04T16:33:28.491Z,1.10
2019-03-04T16:35:56.709Z,1.13
2019-03-04T16:38:25.285Z,0.80
2019-03-04T16:40:53.502Z,1.00
2019-03-04T16:43:21.762Z,0.67
2019-03-04T16:45:50.118Z,0.70
2019-03-04T16:48:18.449Z,0.80
2019-03-04T16:50:47.405Z,0.70
2019-03-04T16:53:17.201Z,0.90
2019-03-04T16:55:45.561Z,0.80
2019-03-04T16:58:13.821Z,0.87
2019-03-04T17:00:42.118Z,0.80
2019-03-04T17:03:10.433Z,0.83
2019-03-04T17:05:38.686Z,0.83
2019-03-04T17:08:06.969Z,0.90
2019-03-04T17:10:35.231Z,0.90
2019-03-04T17:13:03.585Z,0.80
2019-03-04T17:15:31.775Z,0.70
2019-03-04T17:18:00.057Z,1.00
2019-03-04T17:20:28.318Z,1.40
2019-03-04T17:22:56.525Z,1.10
2019-03-04T17:25:24.977Z,5.17
2019-03-04T17:27:53.189Z,1.20
2019-03-04T17:30:22.145Z,1.00
2019-03-04T17:32:50.498Z,1.17
2019-03-04T17:35:19.428Z,0.83
2019-03-04T17:37:47.709Z,0.90
2019-03-04T17:40:20.104Z,1.10
2019-03-04T17:42:48.389Z,1.57
2019-03-04T17:45:18.181Z,1.20
2019-03-04T17:47:46.465Z,0.93
2019-03-04T17:50:28.232Z,1.17
2019-03-04T17:52:56.518Z,0.83
2019-03-04T17:55:24.777Z,0.90
2019-03-04T17:57:53.077Z,1.23
2019-03-04T18:00:21.266Z,1.20
2019-03-04T18:02:49.805Z,1.00
2019-03-04T18:05:18.246Z,1.40
2019-03-04T18:07:48.537Z,0.80
2019-03-04T18:10:17.272Z,1.30
2019-03-04T18:12:45.976Z,0.97
2019-03-04T18:15:18.406Z,1.10
2019-03-04T18:17:46.617Z,1.00
2019-03-04T18:20:15.148Z,1.00
2019-03-04T18:22:44.103Z,1.10
2019-03-04T18:25:19.814Z,0.80
2019-03-04T18:27:49.297Z,0.83
2019-03-04T18:30:24.953Z,1.00
2019-03-04T18:32:57.678Z,1.10
2019-03-04T18:35:36.553Z,1.20
2019-03-04T18:38:09.033Z,1.10
2019-03-04T18:40:44.680Z,1.00
2019-03-04T18:43:14.505Z,1.00
2019-03-04T18:45:53.153Z,1.53
2019-03-04T18:48:32.009Z,1.20
2019-03-04T18:51:00.713Z,1.00
2019-03-04T18:53:29.085Z,1.47
2019-03-04T18:55:57.349Z,1.13
2019-03-04T18:58:25.609Z,0.97
2019-03-04T19:00:53.826Z,1.00
2019-03-04T19:03:22.081Z,0.93
2019-03-04T19:05:50.361Z,0.97
2019-03-04T19:08:18.630Z,1.63
2019-03-04T19:10:46.921Z,0.80
2019-03-04T19:13:15.182Z,0.90
2019-03-04T19:15:43.391Z,0.90
2019-03-04T19:18:12.346Z,1.00
2019-03-04T19:20:40.626Z,1.93
2019-03-04T19:23:08.817Z,1.03
2019-03-04T19:25:37.097Z,1.10
2019-03-04T19:28:05.278Z,1.33
2019-03-04T19:30:33.589Z,1.20
2019-03-04T19:33:01.855Z,1.10
2019-03-04T19:35:30.152Z,1.40
2019-03-04T19:37:58.663Z,1.30
2019-03-04T19:40:26.945Z,1.50
2019-03-04T19:42:55.205Z,1.40
2019-03-04T19:45:23.413Z,1.57
2019-03-04T19:47:51.670Z,1.30
2019-03-04T19:50:19.952Z,1.50
2019-03-04T19:52:48.205Z,1.10
2019-03-04T19:55:16.985Z,1.10
2019-03-04T19:57:45.542Z,1.20
2019-03-04T20:00:20.653Z,1.03
2019-03-04T20:02:49.082Z,0.90
2019-03-04T20:05:18.038Z,0.90
2019-03-04T20:07:46.289Z,1.03
2019-03-04T20:10:15.444Z,1.20
2019-03-04T20:12:43.877Z,1.00
2019-03-04T20:15:16.762Z,0.80
2019-03-04T20:17:44.937Z,0.80
2019-03-04T20:20:13.158Z,1.30
2019-03-04T20:22:41.428Z,1.03
2019-03-04T20:25:12.423Z,0.70
2019-03-04T20:27:40.734Z,0.83
2019-03-04T20:30:10.746Z,1.00
2019-03-04T20:32:39.075Z,1.40
2019-03-04T20:35:08.829Z,1.70
2019-03-04T20:37:37.358Z,1.20
2019-03-04T20:40:07.219Z,1.93
2019-03-04T20:42:35.730Z,1.30
2019-03-04T20:45:05.617Z,0.77
2019-03-04T20:47:33.905Z,0.70
2019-03-04T20:50:02.170Z,0.67
2019-03-04T20:52:30.449Z,0.80
2019-03-04T20:54:58.637Z,0.67
2019-03-04T20:57:26.853Z,0.90
2019-03-04T20:59:55.037Z,0.90
2019-03-04T21:02:23.313Z,1.30
2019-03-04T21:04:51.510Z,1.23
2019-03-04T21:07:19.797Z,1.10
2019-03-04T21:09:48.059Z,1.30
2019-03-04T21:12:18.376Z,1.20
2019-03-04T21:14:46.321Z,1.47
2019-03-04T21:17:14.610Z,0.93
2019-03-04T21:19:42.882Z,1.43
2019-03-04T21:22:11.177Z,1.73
2019-03-04T21:24:39.361Z,1.60
2019-03-04T21:27:07.656Z,1.30
2019-03-04T21:29:37.449Z,1.10
2019-03-04T21:32:13.657Z,1.70
2019-03-04T21:34:46.138Z,1.13
2019-03-04T21:37:18.949Z,1.80
2019-03-04T21:39:48.674Z,1.60
2019-03-04T21:42:18.604Z,1.53
2019-03-04T21:44:54.455Z,1.10
2019-03-04T21:47:36.449Z,1.10
2019-03-04T21:50:08.990Z,0.90
2019-03-04T21:52:46.745Z,0.80
2019-03-04T21:55:24.858Z,1.00
2019-03-04T21:57:53.304Z,0.90
2019-03-04T22:00:24.216Z,0.90
2019-03-04T22:02:54.013Z,0.90
2019-03-04T22:05:22.368Z,0.80
2019-03-04T22:07:50.676Z,1.10
2019-03-04T22:10:19.027Z,0.90
2019-03-04T22:12:47.297Z,1.10
2019-03-04T22:15:16.341Z,1.23
2019-03-04T22:17:44.536Z,1.00
2019-03-04T22:20:14.385Z,0.90
2019-03-04T22:22:42.901Z,1.67
2019-03-04T22:25:11.896Z,1.23
2019-03-04T22:27:40.159Z,1.00
2019-03-04T22:30:12.971Z,0.90
2019-03-04T22:32:41.267Z,1.53
2019-03-04T22:35:11.024Z,0.97
2019-03-04T22:37:39.345Z,0.90
2019-03-04T22:40:09.352Z,1.00
2019-03-04T22:42:37.653Z,0.93
2019-03-04T22:45:10.409Z,0.77
2019-03-04T22:47:38.688Z,0.93
2019-03-04T22:50:08.726Z,1.40
2019-03-04T22:52:36.980Z,0.90
2019-03-04T22:55:07.710Z,1.03
2019-03-04T22:57:36.084Z,1.47
2019-03-04T23:00:06.163Z,1.90
2019-03-04T23:02:34.341Z,1.20
2019-03-04T23:05:02.617Z,2.73
2019-03-04T23:07:31.052Z,3.40
2019-03-04T23:09:59.429Z,1.60
2019-03-04T23:12:34.993Z,1.40
2019-03-04T23:15:04.817Z,1.40
2019-03-04T23:17:33.073Z,1.10
2019-03-04T23:20:01.281Z,1.40
2019-03-04T23:22:29.468Z,1.00
2019-03-04T23:24:57.756Z,1.03
2019-03-04T23:27:26.021Z,1.53
2019-03-04T23:29:54.558Z,1.60
2019-03-04T23:32:22.733Z,1.43
2019-03-04T23:34:50.950Z,1.10
2019-03-04T23:37:19.129Z,1.30
2019-03-04T23:39:47.336Z,1.10
2019-03-04T23:42:15.526Z,1.37
2019-03-04T23:44:43.886Z,1.00
2019-03-04T23:47:12.158Z,1.47
2019-03-04T23:49:40.444Z,1.20
2019-03-04T23:52:08.719Z,0.93
2019-03-04T23:54:36.970Z,0.93
2019-03-04T23:57:05.181Z,1.47
2019-03-04T23:59:33.442Z,1.60
